createdAt,value
2019-04-26T00:01:05.608Z,0.90
2019-04-26T00:03:42.853Z,1.40
2019-04-26T00:06:12.349Z,1.63
2019-04-26T00:08:40.132Z,1.30
2019-04-26T00:11:29.485Z,1.07
2019-04-26T00:14:34.062Z,2.27
2019-04-26T00:17:26.210Z,2.93
2019-04-26T00:19:53.025Z,1.30
2019-04-26T00:22:19.992Z,1.83
2019-04-26T00:24:46.570Z,1.87
2019-04-26T00:27:13.112Z,0.83
2019-04-26T00:29:40.192Z,1.67
2019-04-26T00:32:06.813Z,1.43
2019-04-26T00:34:33.400Z,1.23
2019-04-26T00:36:59.969Z,1.30
2019-04-26T00:39:26.578Z,1.20
2019-04-26T00:41:53.159Z,1.43
2019-04-26T00:44:20.907Z,1.30
2019-04-26T00:46:47.997Z,1.40
2019-04-26T00:49:15.145Z,2.33
2019-04-26T00:51:42.049Z,1.13
2019-04-26T00:54:08.929Z,1.63
2019-04-26T00:56:35.547Z,1.43
2019-04-26T00:59:02.430Z,1.60
2019-04-26T01:01:30.785Z,1.43
2019-04-26T01:03:57.622Z,1.70
2019-04-26T01:06:26.985Z,1.60
2019-04-26T01:08:53.556Z,1.50
2019-04-26T01:11:20.161Z,1.50
2019-04-26T01:13:47.063Z,1.43
2019-04-26T01:16:13.661Z,1.77
2019-04-26T01:18:40.213Z,1.67
2019-04-26T01:21:06.827Z,1.60
2019-04-26T01:23:33.445Z,1.77
2019-04-26T01:26:00.027Z,1.93
2019-04-26T01:28:27.767Z,1.43
2019-04-26T01:30:54.562Z,1.93
2019-04-26T01:33:21.900Z,1.80
2019-04-26T01:35:48.489Z,2.03
2019-04-26T01:38:15.329Z,1.70
2019-04-26T01:40:43.828Z,1.50
2019-04-26T01:43:30.807Z,1.50
2019-04-26T01:46:02.499Z,1.63
2019-04-26T01:48:45.676Z,1.40
2019-04-26T01:51:12.601Z,1.73
2019-04-26T01:53:39.279Z,2.17
2019-04-26T01:56:06.012Z,2.30
2019-04-26T01:58:33.171Z,1.50
2019-04-26T02:01:11.562Z,1.90
2019-04-26T02:03:38.205Z,2.43
2019-04-26T02:06:04.769Z,2.10
2019-04-26T02:08:32.433Z,2.13
2019-04-26T02:10:59.208Z,1.30
2019-04-26T02:13:26.795Z,1.90
2019-04-26T02:15:53.548Z,1.70
2019-04-26T02:18:20.099Z,2.07
2019-04-26T02:20:46.700Z,1.80
2019-04-26T02:23:19.512Z,2.47
2019-04-26T02:25:46.164Z,1.73
2019-04-26T02:28:12.866Z,2.57
2019-04-26T02:30:39.602Z,2.10
2019-04-26T02:33:06.151Z,2.17
2019-04-26T02:35:34.087Z,2.97
2019-04-26T02:38:00.941Z,3.00
2019-04-26T02:40:29.548Z,1.93
2019-04-26T02:42:56.478Z,2.47
2019-04-26T02:45:41.368Z,2.87
2019-04-26T02:48:24.303Z,1.80
2019-04-26T02:50:53.859Z,1.77
2019-04-26T02:53:20.473Z,2.73
2019-04-26T02:55:47.384Z,2.47
2019-04-26T02:58:13.974Z,2.30
2019-04-26T03:00:40.552Z,4.00
2019-04-26T03:03:07.226Z,2.20
2019-04-26T03:05:35.499Z,1.77
2019-04-26T03:08:03.666Z,1.50
2019-04-26T03:10:31.909Z,2.47
2019-04-26T03:12:59.246Z,2.00
2019-04-26T03:15:51.090Z,2.00
2019-04-26T03:18:49.638Z,2.13
2019-04-26T03:21:16.262Z,1.50
2019-04-26T03:23:57.132Z,2.17
2019-04-26T03:26:11.597Z,2.17
2019-04-26T03:28:39.971Z,2.20
2019-04-26T03:31:06.882Z,3.17
2019-04-26T03:33:38.871Z,2.43
2019-04-26T03:36:21.523Z,3.20
2019-04-26T03:38:50.785Z,2.10
2019-04-26T03:41:21.194Z,1.60
2019-04-26T03:43:47.881Z,3.17
2019-04-26T03:46:14.815Z,2.33
2019-04-26T03:48:43.014Z,2.43
2019-04-26T03:51:09.909Z,2.10
2019-04-26T03:53:38.148Z,2.70
2019-04-26T03:56:06.219Z,2.30
2019-04-26T03:58:37.772Z,2.60
2019-04-26T04:01:07.292Z,2.50
2019-04-26T04:03:45.410Z,2.10
2019-04-26T04:06:14.267Z,2.30
2019-04-26T04:08:42.859Z,2.90
2019-04-26T04:11:09.411Z,2.33
2019-04-26T04:13:42.687Z,2.13
2019-04-26T04:16:08.805Z,2.37
2019-04-26T04:18:35.375Z,2.10
2019-04-26T04:21:13.528Z,2.70
2019-04-26T04:23:42.879Z,3.67
2019-04-26T04:26:09.550Z,2.20
2019-04-26T04:28:36.142Z,2.43
2019-04-26T04:31:03.073Z,2.67
2019-04-26T04:33:30.139Z,2.33
2019-04-26T04:35:57.893Z,3.27
2019-04-26T04:38:26.821Z,2.33
2019-04-26T04:41:28.095Z,3.00
2019-04-26T04:44:01.017Z,2.33
2019-04-26T04:46:39.031Z,2.37
2019-04-26T04:49:09.342Z,2.20
2019-04-26T04:51:36.021Z,3.83
2019-04-26T04:54:03.233Z,3.10
2019-04-26T04:56:30.388Z,3.00
2019-04-26T04:58:57.120Z,4.43
2019-04-26T05:02:01.618Z,2.23
2019-04-26T05:04:30.126Z,2.30
2019-04-26T05:07:05.118Z,2.50
2019-04-26T05:09:31.810Z,2.57
2019-04-26T05:11:58.742Z,2.17
2019-04-26T05:14:25.393Z,2.43
2019-04-26T05:16:52.611Z,2.53
2019-04-26T05:19:29.132Z,2.43
2019-04-26T05:21:55.769Z,2.33
2019-04-26T05:24:22.334Z,2.27
2019-04-26T05:27:07.816Z,4.83
2019-04-26T05:29:35.578Z,2.87
2019-04-26T05:32:04.226Z,3.30
2019-04-26T05:34:35.510Z,2.93
2019-04-26T05:37:02.943Z,2.83
2019-04-26T05:39:29.669Z,3.10
2019-04-26T05:41:58.358Z,3.30
2019-04-26T05:44:26.793Z,2.60
2019-04-26T05:47:03.776Z,3.30
2019-04-26T05:49:53.770Z,3.33
2019-04-26T05:52:22.985Z,3.10
2019-04-26T05:54:59.183Z,4.63
2019-04-26T05:57:28.873Z,4.17
2019-04-26T05:59:56.747Z,3.53
2019-04-26T06:02:44.089Z,2.63
2019-04-26T06:05:24.278Z,3.33
2019-04-26T06:07:56.385Z,2.73
2019-04-26T06:10:32.822Z,3.20
2019-04-26T06:13:03.031Z,3.43
2019-04-26T06:15:39.048Z,3.23
2019-04-26T06:18:31.155Z,3.87
2019-04-26T06:20:58.177Z,2.63
2019-04-26T06:23:25.093Z,3.63
2019-04-26T06:25:58.327Z,4.00
2019-04-26T06:28:26.018Z,3.90
2019-04-26T06:30:54.067Z,2.77
2019-04-26T06:33:21.324Z,5.93
2019-04-26T06:35:49.160Z,4.57
2019-04-26T06:38:17.689Z,3.67
2019-04-26T06:40:44.397Z,3.60
2019-04-26T06:43:45.845Z,3.00
2019-04-26T06:46:34.934Z,3.43
2019-04-26T06:49:08.575Z,3.67
2019-04-26T06:51:35.260Z,4.47
2019-04-26T06:54:02.108Z,3.67
2019-04-26T06:56:30.614Z,3.67
2019-04-26T06:58:57.956Z,3.90
2019-04-26T07:01:26.113Z,3.77
2019-04-26T07:03:53.339Z,3.27
2019-04-26T07:06:20.186Z,3.50
2019-04-26T07:08:56.596Z,5.20
2019-04-26T07:11:23.205Z,2.70
2019-04-26T07:13:52.693Z,5.37
2019-04-26T07:16:23.056Z,4.03
2019-04-26T07:18:48.654Z,2.73
2019-04-26T07:21:21.928Z,5.33
2019-04-26T07:24:02.863Z,5.60
2019-04-26T07:26:30.403Z,3.13
2019-04-26T07:28:57.554Z,4.60
2019-04-26T07:31:24.278Z,3.87
2019-04-26T07:33:51.685Z,6.60
2019-04-26T07:36:18.596Z,4.10
2019-04-26T07:39:10.398Z,3.77
2019-04-26T07:41:37.261Z,2.80
2019-04-26T07:44:05.992Z,4.63
2019-04-26T07:46:32.893Z,3.77
2019-04-26T07:49:00.135Z,5.10
2019-04-26T07:51:27.017Z,3.20
2019-04-26T07:53:53.964Z,3.40
2019-04-26T07:56:20.925Z,3.93
2019-04-26T07:58:47.590Z,3.23
2019-04-26T08:01:21.747Z,5.67
2019-04-26T08:03:53.991Z,4.20
2019-04-26T08:06:21.373Z,4.00
2019-04-26T08:08:47.955Z,2.60
2019-04-26T08:11:14.992Z,4.20
2019-04-26T08:13:42.119Z,3.43
2019-04-26T08:16:26.767Z,3.87
2019-04-26T08:18:59.240Z,3.73
2019-04-26T08:21:32.307Z,4.57
2019-04-26T08:24:07.918Z,4.63
2019-04-26T08:26:34.763Z,4.27
2019-04-26T08:29:01.646Z,3.37
2019-04-26T08:31:28.511Z,4.30
2019-04-26T08:33:59.321Z,3.60
2019-04-26T08:36:27.165Z,2.60
2019-04-26T08:38:54.824Z,3.70
2019-04-26T08:41:21.855Z,4.60
2019-04-26T08:44:14.706Z,4.87
2019-04-26T08:47:20.973Z,4.43
2019-04-26T08:52:26.702Z,4.87
2019-04-26T08:54:54.958Z,7.03
2019-04-26T08:57:21.621Z,11.07
2019-04-26T08:59:48.240Z,5.30
2019-04-26T09:02:25.854Z,5.53
2019-04-26T09:05:15.156Z,8.97
2019-04-26T09:07:41.966Z,4.03
2019-04-26T09:10:11.176Z,6.90
2019-04-26T09:12:37.098Z,7.53
2019-04-26T09:15:05.412Z,5.30
2019-04-26T09:17:33.540Z,5.20
2019-04-26T09:20:07.028Z,8.33
2019-04-26T09:22:41.376Z,6.93
2019-04-26T09:25:22.610Z,5.00
2019-04-26T09:27:58.996Z,8.67
2019-04-26T09:30:34.533Z,4.93
2019-04-26T09:33:14.387Z,5.13
2019-04-26T09:35:43.297Z,5.70
2019-04-26T09:38:09.905Z,5.53
2019-04-26T09:40:37.089Z,6.03
2019-04-26T09:43:35.664Z,7.03
2019-04-26T09:46:24.587Z,4.40
2019-04-26T09:48:57.229Z,5.03
2019-04-26T09:51:24.036Z,5.10
2019-04-26T09:53:51.014Z,6.47
2019-04-26T09:56:18.086Z,4.53
2019-04-26T09:58:45.229Z,4.60
2019-04-26T10:01:12.018Z,4.37
2019-04-26T10:03:38.897Z,3.90
2019-04-26T10:06:08.062Z,6.90
2019-04-26T10:08:34.536Z,3.80
2019-04-26T10:11:01.405Z,4.50
2019-04-26T10:13:40.802Z,3.20
2019-04-26T10:16:33.398Z,5.67
2019-04-26T10:19:01.774Z,4.15
2019-04-26T10:21:28.437Z,4.53
2019-04-26T10:23:55.333Z,2.83
2019-04-26T10:26:23.242Z,6.15
2019-04-26T10:28:52.147Z,4.43
2019-04-26T10:31:19.096Z,3.60
2019-04-26T10:33:45.898Z,4.83
2019-04-26T10:36:12.623Z,2.77
2019-04-26T10:38:39.533Z,2.33
2019-04-26T10:41:06.221Z,4.77
2019-04-26T10:43:32.783Z,5.12
2019-04-26T10:45:59.441Z,4.12
2019-04-26T10:48:26.372Z,4.05
2019-04-26T10:50:53.679Z,5.00
2019-04-26T10:53:40.227Z,2.42
2019-04-26T10:56:29.140Z,3.50
2019-04-26T10:59:18.255Z,3.30
2019-04-26T11:01:45.162Z,2.72
2019-04-26T11:04:13.677Z,2.55
2019-04-26T11:06:40.302Z,2.80
2019-04-26T11:09:06.987Z,4.45
2019-04-26T11:11:33.963Z,3.22
2019-04-26T11:14:00.531Z,2.30
2019-04-26T11:16:27.275Z,4.55
2019-04-26T11:18:57.206Z,3.40
2019-04-26T11:21:26.125Z,2.08
2019-04-26T11:23:53.116Z,3.02
2019-04-26T11:26:21.829Z,2.52
2019-04-26T11:28:51.445Z,1.50
2019-04-26T11:31:17.146Z,3.70
2019-04-26T11:33:45.136Z,2.05
2019-04-26T11:36:11.980Z,2.90
2019-04-26T11:38:38.876Z,1.20
2019-04-26T11:41:06.791Z,4.70
2019-04-26T11:43:33.682Z,2.43
2019-04-26T11:46:04.597Z,1.40
2019-04-26T11:48:30.554Z,1.92
2019-04-26T11:50:57.244Z,1.95
2019-04-26T11:53:24.396Z,1.85
2019-04-26T11:55:51.097Z,2.72
2019-04-26T11:58:22.009Z,3.35
2019-04-26T12:00:51.616Z,2.00
2019-04-26T12:03:21.269Z,2.37
2019-04-26T12:06:00.418Z,2.50
2019-04-26T12:08:35.774Z,1.47
2019-04-26T12:11:03.040Z,2.58
2019-04-26T12:13:29.703Z,2.67
2019-04-26T12:15:56.406Z,2.87
2019-04-26T12:18:23.222Z,1.80
2019-04-26T12:20:49.934Z,2.20
2019-04-26T12:23:20.566Z,2.70
2019-04-26T12:25:48.074Z,2.60
2019-04-26T12:28:13.797Z,1.57
2019-04-26T12:30:40.372Z,1.70
2019-04-26T12:33:06.991Z,1.30
2019-04-26T12:35:33.726Z,1.33
2019-04-26T12:38:00.569Z,3.62
2019-04-26T12:40:27.238Z,3.45
2019-04-26T12:42:53.906Z,3.87
2019-04-26T12:45:29.886Z,1.42
2019-04-26T12:47:58.391Z,2.12
2019-04-26T12:50:37.737Z,1.37
2019-04-26T12:53:04.752Z,1.60
2019-04-26T12:55:32.120Z,1.47
2019-04-26T12:57:58.715Z,1.27
2019-04-26T13:00:28.473Z,2.58
2019-04-26T13:02:57.369Z,3.05
2019-04-26T13:05:24.512Z,1.32
2019-04-26T13:07:52.970Z,2.72
2019-04-26T13:10:38.517Z,2.55
2019-04-26T13:13:16.382Z,1.90
2019-04-26T13:16:21.815Z,1.15
2019-04-26T13:18:46.976Z,1.30
2019-04-26T13:21:13.685Z,2.33
2019-04-26T13:23:41.005Z,1.95
2019-04-26T13:26:07.629Z,3.37
2019-04-26T13:28:34.715Z,1.70
2019-04-26T13:31:02.340Z,2.22
2019-04-26T13:33:29.633Z,1.17
2019-04-26T13:36:02.630Z,1.65
2019-04-26T13:38:24.759Z,1.77
2019-04-26T13:40:51.771Z,2.67
2019-04-26T13:43:18.392Z,1.10
2019-04-26T13:45:59.700Z,2.15
2019-04-26T13:48:35.359Z,2.12
2019-04-26T13:51:07.200Z,1.72
2019-04-26T13:53:33.806Z,1.70
2019-04-26T13:56:01.905Z,1.20
2019-04-26T13:58:29.001Z,2.17
2019-04-26T14:00:55.581Z,1.10
2019-04-26T14:03:22.349Z,1.07
2019-04-26T14:05:48.974Z,2.30
2019-04-26T14:08:17.658Z,1.02
2019-04-26T14:10:45.583Z,0.78
2019-04-26T14:13:13.005Z,1.57
2019-04-26T14:15:44.005Z,1.70
2019-04-26T14:18:08.362Z,2.58
2019-04-26T14:20:35.728Z,2.10
2019-04-26T14:23:20.622Z,1.95
2019-04-26T14:26:05.340Z,1.35
2019-04-26T14:28:32.512Z,1.80
2019-04-26T14:30:59.110Z,1.98
2019-04-26T14:33:27.054Z,1.90
2019-04-26T14:35:54.284Z,1.72
2019-04-26T14:38:27.793Z,0.80
2019-04-26T14:40:56.904Z,0.50
2019-04-26T14:43:18.327Z,1.02
2019-04-26T14:45:55.641Z,2.47
2019-04-26T14:48:22.230Z,1.70
2019-04-26T14:50:44.012Z,0.98
2019-04-26T14:53:11.249Z,1.32
2019-04-26T14:55:37.903Z,1.15
2019-04-26T14:58:04.586Z,0.60
2019-04-26T15:00:33.981Z,1.40
2019-04-26T15:03:17.317Z,0.98
2019-04-26T15:06:02.938Z,2.17
2019-04-26T15:08:32.089Z,1.00
2019-04-26T15:11:01.227Z,1.40
2019-04-26T15:13:26.711Z,1.50
2019-04-26T15:15:53.693Z,0.65
2019-04-26T15:18:20.247Z,1.22
2019-04-26T15:20:47.321Z,1.20
2019-04-26T15:23:14.026Z,1.12
2019-04-26T15:25:41.425Z,1.52
2019-04-26T15:28:12.050Z,0.93
2019-04-26T15:30:43.274Z,1.90
2019-04-26T15:33:09.002Z,1.47
2019-04-26T15:35:36.601Z,0.90
2019-04-26T15:38:03.710Z,3.27
2019-04-26T15:41:07.401Z,1.32
2019-04-26T15:43:38.626Z,2.25
2019-04-26T15:46:26.930Z,1.30
2019-04-26T15:49:16.482Z,0.63
2019-04-26T15:51:43.068Z,0.60
2019-04-26T15:54:09.897Z,0.60
2019-04-26T15:56:36.471Z,2.25
2019-04-26T15:59:03.058Z,0.43
2019-04-26T16:01:29.901Z,0.50
2019-04-26T16:03:56.733Z,1.05
2019-04-26T16:06:24.863Z,2.67
2019-04-26T16:08:52.401Z,1.45
2019-04-26T16:11:19.450Z,0.42
2019-04-26T16:13:54.130Z,1.42
2019-04-26T16:16:20.717Z,0.90
2019-04-26T16:18:49.910Z,0.47
2019-04-26T16:21:17.828Z,0.98
2019-04-26T16:23:51.132Z,1.62
2019-04-26T16:26:15.322Z,0.57
2019-04-26T16:32:04.552Z,1.70
2019-04-26T16:34:32.460Z,0.50
2019-04-26T16:37:00.118Z,2.20
2019-04-26T16:39:32.246Z,0.98
2019-04-26T16:41:59.384Z,0.47
2019-04-26T16:44:29.516Z,0.90
2019-04-26T16:47:01.044Z,1.42
2019-04-26T16:49:23.436Z,0.20
2019-04-26T16:51:54.571Z,1.10
2019-04-26T16:54:21.891Z,2.27
2019-04-26T16:56:47.942Z,0.82
2019-04-26T16:59:22.664Z,0.53
2019-04-26T17:00:35.777Z,0.50
2019-04-26T17:01:47.416Z,0.85
2019-04-26T17:04:14.186Z,2.17
2019-04-26T17:06:44.751Z,0.53
2019-04-26T17:09:09.394Z,0.40
2019-04-26T17:11:41.124Z,0.80
2019-04-26T17:14:09.989Z,0.60
2019-04-26T17:16:38.037Z,0.70
2019-04-26T17:19:02.590Z,0.53
2019-04-26T17:21:34.608Z,0.80
2019-04-26T17:24:20.339Z,0.95
2019-04-26T17:26:50.611Z,0.78
2019-04-26T17:29:17.358Z,0.60
2019-04-26T17:31:44.021Z,0.60
2019-04-26T17:34:12.679Z,1.25
2019-04-26T17:36:41.270Z,0.90
2019-04-26T17:39:11.011Z,2.02
2019-04-26T17:41:37.969Z,0.80
2019-04-26T17:44:10.615Z,1.30
2019-04-26T17:46:33.357Z,1.42
2019-04-26T17:49:00.478Z,0.88
2019-04-26T17:51:27.396Z,1.00
2019-04-26T17:54:18.975Z,1.10
2019-04-26T17:56:26.094Z,0.70
2019-04-26T17:58:54.322Z,0.78
2019-04-26T18:01:41.166Z,1.90
2019-04-26T18:03:52.033Z,1.42
2019-04-26T18:06:29.119Z,2.25
2019-04-26T18:08:52.326Z,2.00
2019-04-26T18:11:19.692Z,1.90
2019-04-26T18:13:43.077Z,1.92
2019-04-26T18:16:09.820Z,1.12
2019-04-26T18:19:02.650Z,2.95
2019-04-26T18:21:59.563Z,1.25
2019-04-26T18:24:23.557Z,0.93
2019-04-26T18:26:52.263Z,2.50
2019-04-26T18:29:18.746Z,2.80
2019-04-26T18:31:45.414Z,1.27
2019-04-26T18:34:12.813Z,1.40
2019-04-26T18:36:39.568Z,1.47
2019-04-26T18:39:06.369Z,1.00
2019-04-26T18:41:34.156Z,0.70
2019-04-26T18:44:02.946Z,2.58
2019-04-26T18:46:40.560Z,2.20
2019-04-26T18:49:05.190Z,1.20
2019-04-26T18:51:33.438Z,1.42
2019-04-26T18:54:09.223Z,1.75
2019-04-26T18:56:39.615Z,1.05
2019-04-26T18:59:07.260Z,3.15
2019-04-26T19:01:38.018Z,1.07
2019-04-26T19:04:09.483Z,1.22
2019-04-26T19:06:32.312Z,1.43
2019-04-26T19:09:02.363Z,1.73
2019-04-26T19:11:28.256Z,1.27
2019-04-26T19:14:06.545Z,1.02
2019-04-26T19:16:59.238Z,1.47
2019-04-26T19:19:32.751Z,0.82
2019-04-26T19:22:03.314Z,0.93
2019-04-26T19:24:30.252Z,1.30
2019-04-26T19:26:56.938Z,2.12
2019-04-26T19:29:31.372Z,1.10
2019-04-26T19:31:52.407Z,1.05
2019-04-26T19:34:19.198Z,0.95
2019-04-26T19:36:45.793Z,1.87
2019-04-26T19:39:13.832Z,1.05
2019-04-26T19:41:41.970Z,1.40
2019-04-26T19:44:08.727Z,1.20
2019-04-26T19:46:45.417Z,1.20
2019-04-26T19:49:36.803Z,3.77
2019-04-26T19:52:12.097Z,1.77
2019-04-26T19:54:42.650Z,0.85
2019-04-26T19:57:15.223Z,1.47
2019-04-26T19:59:42.349Z,1.05
2019-04-26T20:02:09.028Z,3.53
2019-04-26T20:04:36.032Z,1.17
2019-04-26T20:07:02.928Z,1.22
2019-04-26T20:09:29.546Z,1.57
2019-04-26T20:11:57.927Z,2.30
2019-04-26T20:14:39.500Z,2.60
2019-04-26T20:16:54.394Z,1.07
2019-04-26T20:19:33.726Z,1.50
2019-04-26T20:21:50.586Z,1.20
2019-04-26T20:24:19.379Z,2.08
2019-04-26T20:26:48.540Z,1.03
2019-04-26T20:29:14.875Z,1.53
2019-04-26T20:32:02.079Z,1.50
2019-04-26T20:34:29.001Z,1.30
2019-04-26T20:36:55.900Z,1.40
2019-04-26T20:39:24.086Z,1.50
2019-04-26T20:42:00.666Z,1.60
2019-04-26T20:44:23.769Z,1.83
2019-04-26T20:46:48.485Z,1.00
2019-04-26T20:49:19.302Z,2.17
2019-04-26T20:51:46.378Z,2.07
2019-04-26T20:54:16.253Z,0.90
2019-04-26T20:56:46.251Z,1.43
2019-04-26T20:59:11.855Z,1.33
2019-04-26T21:01:38.648Z,1.67
2019-04-26T21:04:05.489Z,1.23
2019-04-26T21:06:33.816Z,1.20
2019-04-26T21:09:03.344Z,1.67
2019-04-26T21:11:30.385Z,1.43
2019-04-26T21:14:01.856Z,1.07
2019-04-26T21:16:26.347Z,1.50
2019-04-26T21:18:54.122Z,1.43
2019-04-26T21:21:21.807Z,1.57
2019-04-26T21:23:50.106Z,1.40
2019-04-26T21:26:34.988Z,1.50
2019-04-26T21:29:20.509Z,2.33
2019-04-26T21:32:01.206Z,1.83
2019-04-26T21:34:31.139Z,1.70
2019-04-26T21:37:20.485Z,1.67
2019-04-26T21:40:06.048Z,2.07
2019-04-26T21:42:33.375Z,2.50
2019-04-26T21:45:00.041Z,1.83
2019-04-26T21:47:27.658Z,1.50
2019-04-26T21:49:59.076Z,1.50
2019-04-26T21:52:27.598Z,1.50
2019-04-26T21:54:53.109Z,1.50
2019-04-26T21:57:27.597Z,1.30
2019-04-26T21:59:54.028Z,2.95
2019-04-26T22:02:21.450Z,2.70
2019-04-26T22:04:48.309Z,1.50
2019-04-26T22:07:16.701Z,1.63
2019-04-26T22:09:55.163Z,1.60
2019-04-26T22:12:23.276Z,1.80
2019-04-26T22:15:00.754Z,1.67
2019-04-26T22:17:36.523Z,1.40
2019-04-26T22:20:12.575Z,1.53
2019-04-26T22:23:03.969Z,1.70
2019-04-26T22:25:33.265Z,1.47
2019-04-26T22:28:00.476Z,1.33
2019-04-26T22:30:29.573Z,1.17
2019-04-26T22:32:58.582Z,1.90
2019-04-26T22:35:25.590Z,2.73
2019-04-26T22:37:53.630Z,1.77
2019-04-26T22:40:20.552Z,1.83
2019-04-26T22:42:49.731Z,2.27
2019-04-26T22:45:23.465Z,3.00
2019-04-26T22:48:03.432Z,2.07
2019-04-26T22:50:30.317Z,2.03
2019-04-26T22:52:57.159Z,2.37
2019-04-26T22:55:27.368Z,4.17
2019-04-26T22:57:53.065Z,1.80
2019-04-26T23:00:24.605Z,2.13
2019-04-26T23:02:48.364Z,1.50
2019-04-26T23:05:15.130Z,1.80
2019-04-26T23:07:42.142Z,2.60
2019-04-26T23:10:10.406Z,1.47
2019-04-26T23:13:04.498Z,1.50
2019-04-26T23:15:46.893Z,2.13
2019-04-26T23:18:38.700Z,1.60
2019-04-26T23:21:11.957Z,2.10
2019-04-26T23:23:37.196Z,1.83
2019-04-26T23:26:06.207Z,1.80
2019-04-26T23:28:36.904Z,2.87
2019-04-26T23:31:07.865Z,2.50
2019-04-26T23:33:30.898Z,2.10
2019-04-26T23:35:57.716Z,2.03
2019-04-26T23:38:24.461Z,3.73
2019-04-26T23:40:51.153Z,1.70
2019-04-26T23:43:22.514Z,1.90
2019-04-26T23:45:48.363Z,1.97
2019-04-26T23:48:14.787Z,3.53
2019-04-26T23:50:42.850Z,2.10
2019-04-26T23:53:10.388Z,1.97
2019-04-26T23:55:38.086Z,1.73
2019-04-26T23:58:10.782Z,1.90
